Terminal Aerodrome Forecast
Issued by NWS

Home | Current Version | Previous Version | Text Only | Print | Product List | Glossary On
Versions: 1 2 3 4 5 6 7 8 9 10 11 12 13 14 15 16 17 18 19 20 21 22 23 24 25 26 27
377
FTUS46 KMTR 281509 AAA
TAFSFO
TAF AMD
KSFO 281509Z 2815/2918 28008KT P6SM SCT200
     FM282100 29013KT P6SM SCT200
     FM282300 28018G28KT P6SM SCT200
     FM290500 28014G24KT P6SM SKC
     FM291000 27007KT P6SM SKC=

USA.gov is the U.S. government's official web portal to all federal, state and local government web resources and services.